sensor_id;sensor_type;location;lat;lon;timestamp;P1;durP1;ratioP1;P2;durP2;ratioP2
16442;SDS011;8331;51.654;14.376;2023-02-24T00:00:07;66.00;;;38.73;;
16442;SDS011;8331;51.654;14.376;2023-02-24T00:02:53;73.37;;;41.13;;
16442;SDS011;8331;51.654;14.376;2023-02-24T00:05:20;67.23;;;39.07;;
16442;SDS011;8331;51.654;14.376;2023-02-24T00:07:48;63.53;;;37.23;;
16442;SDS011;8331;51.654;14.376;2023-02-24T00:10:15;75.83;;;42.03;;
16442;SDS011;8331;51.654;14.376;2023-02-24T00:12:46;72.37;;;40.33;;
16442;SDS011;8331;51.654;14.376;2023-02-24T00:15:13;72.90;;;41.33;;
16442;SDS011;8331;51.654;14.376;2023-02-24T00:17:40;71.43;;;40.53;;
16442;SDS011;8331;51.654;14.376;2023-02-24T00:20:07;72.80;;;40.23;;
16442;SDS011;8331;51.654;14.376;2023-02-24T00:22:38;79.77;;;40.50;;
16442;SDS011;8331;51.654;14.376;2023-02-24T00:25:05;61.03;;;35.50;;
16442;SDS011;8331;51.654;14.376;2023-02-24T00:27:31;55.50;;;32.00;;
16442;SDS011;8331;51.654;14.376;2023-02-24T00:29:58;48.77;;;27.33;;
16442;SDS011;8331;51.654;14.376;2023-02-24T00:32:27;49.30;;;26.50;;
16442;SDS011;8331;51.654;14.376;2023-02-24T00:34:54;43.50;;;23.93;;
16442;SDS011;8331;51.654;14.376;2023-02-24T00:37:23;42.57;;;24.50;;
16442;SDS011;8331;51.654;14.376;2023-02-24T00:39:50;42.83;;;23.30;;
16442;SDS011;8331;51.654;14.376;2023-02-24T00:42:16;41.37;;;24.07;;
16442;SDS011;8331;51.654;14.376;2023-02-24T00:44:43;40.33;;;22.60;;
16442;SDS011;8331;51.654;14.376;2023-02-24T00:47:13;44.58;;;29.38;;
16442;SDS011;8331;51.654;14.376;2023-02-24T00:49:41;40.60;;;23.63;;
16442;SDS011;8331;51.654;14.376;2023-02-24T00:52:10;43.07;;;24.00;;
16442;SDS011;8331;51.654;14.376;2023-02-24T00:54:39;35.63;;;21.77;;
16442;SDS011;8331;51.654;14.376;2023-02-24T00:57:06;39.00;;;21.67;;
16442;SDS011;8331;51.654;14.376;2023-02-24T00:59:36;38.90;;;22.13;;
16442;SDS011;8331;51.654;14.376;2023-02-24T01:02:03;36.27;;;21.33;;
16442;SDS011;8331;51.654;14.376;2023-02-24T01:04:32;36.73;;;21.77;;
16442;SDS011;8331;51.654;14.376;2023-02-24T01:06:59;38.93;;;22.57;;
16442;SDS011;8331;51.654;14.376;2023-02-24T01:09:28;39.80;;;22.70;;
16442;SDS011;8331;51.654;14.376;2023-02-24T01:11:55;42.70;;;23.23;;
16442;SDS011;8331;51.654;14.376;2023-02-24T01:14:42;37.77;;;22.80;;
16442;SDS011;8331;51.654;14.376;2023-02-24T01:17:10;38.13;;;21.77;;
16442;SDS011;8331;51.654;14.376;2023-02-24T01:19:37;39.50;;;24.33;;
16442;SDS011;8331;51.654;14.376;2023-02-24T01:22:05;42.73;;;23.97;;
16442;SDS011;8331;51.654;14.376;2023-02-24T01:24:34;39.17;;;22.73;;
16442;SDS011;8331;51.654;14.376;2023-02-24T01:27:00;42.93;;;23.57;;
16442;SDS011;8331;51.654;14.376;2023-02-24T01:29:27;35.87;;;21.50;;
16442;SDS011;8331;51.654;14.376;2023-02-24T01:31:54;42.13;;;23.13;;
16442;SDS011;8331;51.654;14.376;2023-02-24T01:34:25;38.13;;;21.87;;
16442;SDS011;8331;51.654;14.376;2023-02-24T01:36:51;37.30;;;21.43;;
16442;SDS011;8331;51.654;14.376;2023-02-24T01:39:18;36.67;;;21.53;;
16442;SDS011;8331;51.654;14.376;2023-02-24T01:41:46;34.77;;;19.87;;
16442;SDS011;8331;51.654;14.376;2023-02-24T01:46:42;33.17;;;19.90;;
16442;SDS011;8331;51.654;14.376;2023-02-24T01:51:39;35.43;;;20.20;;
16442;SDS011;8331;51.654;14.376;2023-02-24T01:54:08;31.63;;;18.67;;
16442;SDS011;8331;51.654;14.376;2023-02-24T01:56:35;29.57;;;17.97;;
16442;SDS011;8331;51.654;14.376;2023-02-24T01:59:03;31.07;;;18.53;;
16442;SDS011;8331;51.654;14.376;2023-02-24T02:01:29;32.87;;;18.27;;
16442;SDS011;8331;51.654;14.376;2023-02-24T02:04:11;32.10;;;18.27;;
16442;SDS011;8331;51.654;14.376;2023-02-24T02:06:42;33.53;;;18.20;;
16442;SDS011;8331;51.654;14.376;2023-02-24T02:09:09;27.00;;;16.67;;
16442;SDS011;8331;51.654;14.376;2023-02-24T02:11:37;33.13;;;18.13;;
16442;SDS011;8331;51.654;14.376;2023-02-24T02:14:03;30.37;;;17.57;;
16442;SDS011;8331;51.654;14.376;2023-02-24T02:26:51;31.70;;;17.23;;
16442;SDS011;8331;51.654;14.376;2023-02-24T02:47:19;28.50;;;16.03;;
16442;SDS011;8331;51.654;14.376;2023-02-24T02:49:50;31.27;;;16.50;;
16442;SDS011;8331;51.654;14.376;2023-02-24T02:52:20;33.72;;;19.48;;
16442;SDS011;8331;51.654;14.376;2023-02-24T02:54:49;31.60;;;16.77;;
16442;SDS011;8331;51.654;14.376;2023-02-24T02:57:22;27.80;;;15.27;;
16442;SDS011;8331;51.654;14.376;2023-02-24T02:59:51;30.77;;;16.00;;
16442;SDS011;8331;51.654;14.376;2023-02-24T03:02:20;30.67;;;16.33;;
16442;SDS011;8331;51.654;14.376;2023-02-24T03:04:54;28.03;;;15.40;;
16442;SDS011;8331;51.654;14.376;2023-02-24T03:07:24;30.37;;;15.77;;
16442;SDS011;8331;51.654;14.376;2023-02-24T03:09:58;31.27;;;15.53;;
16442;SDS011;8331;51.654;14.376;2023-02-24T03:12:28;26.90;;;15.30;;
16442;SDS011;8331;51.654;14.376;2023-02-24T03:14:57;29.87;;;16.00;;
16442;SDS011;8331;51.654;14.376;2023-02-24T03:17:26;29.53;;;16.17;;
16442;SDS011;8331;51.654;14.376;2023-02-24T03:19:57;30.60;;;16.00;;
16442;SDS011;8331;51.654;14.376;2023-02-24T03:22:29;31.20;;;16.17;;
16442;SDS011;8331;51.654;14.376;2023-02-24T03:25:01;33.47;;;16.30;;
16442;SDS011;8331;51.654;14.376;2023-02-24T03:27:39;39.93;;;16.73;;
16442;SDS011;8331;51.654;14.376;2023-02-24T03:30:16;30.87;;;16.03;;
16442;SDS011;8331;51.654;14.376;2023-02-24T03:33:03;27.93;;;15.10;;
16442;SDS011;8331;51.654;14.376;2023-02-24T03:35:38;29.53;;;15.97;;
16442;SDS011;8331;51.654;14.376;2023-02-24T03:38:05;30.03;;;15.57;;
16442;SDS011;8331;51.654;14.376;2023-02-24T03:40:32;29.93;;;15.70;;
16442;SDS011;8331;51.654;14.376;2023-02-24T03:43:11;28.23;;;15.07;;
16442;SDS011;8331;51.654;14.376;2023-02-24T03:45:42;29.07;;;15.00;;
16442;SDS011;8331;51.654;14.376;2023-02-24T03:48:09;29.87;;;14.40;;
16442;SDS011;8331;51.654;14.376;2023-02-24T03:50:38;28.17;;;14.40;;
16442;SDS011;8331;51.654;14.376;2023-02-24T04:03:27;28.23;;;14.67;;
16442;SDS011;8331;51.654;14.376;2023-02-24T04:11:52;29.77;;;13.93;;
16442;SDS011;8331;51.654;14.376;2023-02-24T04:14:23;25.30;;;12.93;;
16442;SDS011;8331;51.654;14.376;2023-02-24T04:16:57;24.33;;;12.27;;
16442;SDS011;8331;51.654;14.376;2023-02-24T04:19:27;26.03;;;13.13;;
16442;SDS011;8331;51.654;14.376;2023-02-24T04:21:56;22.50;;;12.23;;
16442;SDS011;8331;51.654;14.376;2023-02-24T04:24:26;26.30;;;12.10;;
16442;SDS011;8331;51.654;14.376;2023-02-24T04:26:55;22.90;;;12.27;;
16442;SDS011;8331;51.654;14.376;2023-02-24T04:29:27;21.97;;;11.40;;
16442;SDS011;8331;51.654;14.376;2023-02-24T04:32:02;23.73;;;11.47;;
16442;SDS011;8331;51.654;14.376;2023-02-24T04:34:31;22.00;;;11.90;;
16442;SDS011;8331;51.654;14.376;2023-02-24T04:37:01;25.40;;;12.43;;
16442;SDS011;8331;51.654;14.376;2023-02-24T04:39:28;22.33;;;12.00;;
16442;SDS011;8331;51.654;14.376;2023-02-24T04:41:58;25.70;;;11.73;;
16442;SDS011;8331;51.654;14.376;2023-02-24T04:44:27;23.87;;;12.07;;
16442;SDS011;8331;51.654;14.376;2023-02-24T04:46:54;23.00;;;11.97;;
16442;SDS011;8331;51.654;14.376;2023-02-24T04:49:21;24.43;;;10.73;;
16442;SDS011;8331;51.654;14.376;2023-02-24T04:51:48;29.20;;;12.40;;
16442;SDS011;8331;51.654;14.376;2023-02-24T04:54:17;20.07;;;10.43;;
16442;SDS011;8331;51.654;14.376;2023-02-24T04:56:47;24.53;;;11.23;;
16442;SDS011;8331;51.654;14.376;2023-02-24T04:59:16;22.83;;;10.80;;
16442;SDS011;8331;51.654;14.376;2023-02-24T05:01:43;24.03;;;11.07;;
16442;SDS011;8331;51.654;14.376;2023-02-24T05:04:10;21.80;;;9.13;;
16442;SDS011;8331;51.654;14.376;2023-02-24T05:06:38;19.27;;;9.07;;
16442;SDS011;8331;51.654;14.376;2023-02-24T05:09:06;21.53;;;8.43;;
16442;SDS011;8331;51.654;14.376;2023-02-24T05:11:44;15.10;;;7.77;;
16442;SDS011;8331;51.654;14.376;2023-02-24T05:14:12;15.93;;;7.70;;
16442;SDS011;8331;51.654;14.376;2023-02-24T05:16:42;14.67;;;7.10;;
16442;SDS011;8331;51.654;14.376;2023-02-24T05:19:09;14.20;;;7.10;;
16442;SDS011;8331;51.654;14.376;2023-02-24T05:21:54;11.10;;;5.87;;
16442;SDS011;8331;51.654;14.376;2023-02-24T05:24:25;15.63;;;6.33;;
16442;SDS011;8331;51.654;14.376;2023-02-24T05:26:52;11.87;;;5.70;;
16442;SDS011;8331;51.654;14.376;2023-02-24T05:29:25;13.40;;;5.03;;
16442;SDS011;8331;51.654;14.376;2023-02-24T05:31:53;11.43;;;4.97;;
16442;SDS011;8331;51.654;14.376;2023-02-24T05:34:20;12.13;;;4.73;;
16442;SDS011;8331;51.654;14.376;2023-02-24T05:36:49;8.47;;;4.83;;
16442;SDS011;8331;51.654;14.376;2023-02-24T05:39:16;8.60;;;3.77;;
16442;SDS011;8331;51.654;14.376;2023-02-24T05:41:45;8.27;;;4.00;;
16442;SDS011;8331;51.654;14.376;2023-02-24T05:44:17;5.30;;;3.67;;
16442;SDS011;8331;51.654;14.376;2023-02-24T05:46:49;7.13;;;4.10;;
16442;SDS011;8331;51.654;14.376;2023-02-24T05:49:17;8.57;;;4.10;;
16442;SDS011;8331;51.654;14.376;2023-02-24T05:51:49;9.80;;;4.23;;
16442;SDS011;8331;51.654;14.376;2023-02-24T05:54:23;10.73;;;4.33;;
16442;SDS011;8331;51.654;14.376;2023-02-24T05:56:51;7.60;;;4.20;;
16442;SDS011;8331;51.654;14.376;2023-02-24T05:59:17;10.50;;;3.87;;
16442;SDS011;8331;51.654;14.376;2023-02-24T06:01:47;8.53;;;3.93;;
16442;SDS011;8331;51.654;14.376;2023-02-24T06:04:14;10.48;;;4.97;;
16442;SDS011;8331;51.654;14.376;2023-02-24T06:06:53;10.27;;;4.87;;
16442;SDS011;8331;51.654;14.376;2023-02-24T06:09:19;13.97;;;5.03;;
16442;SDS011;8331;51.654;14.376;2023-02-24T06:11:48;9.80;;;4.80;;
16442;SDS011;8331;51.654;14.376;2023-02-24T06:14:15;12.37;;;4.53;;
16442;SDS011;8331;51.654;14.376;2023-02-24T06:16:42;11.87;;;4.47;;
16442;SDS011;8331;51.654;14.376;2023-02-24T06:19:09;17.87;;;4.53;;
16442;SDS011;8331;51.654;14.376;2023-02-24T06:21:36;14.93;;;4.90;;
16442;SDS011;8331;51.654;14.376;2023-02-24T06:24:15;16.93;;;4.13;;
16442;SDS011;8331;51.654;14.376;2023-02-24T06:26:43;16.20;;;4.73;;
16442;SDS011;8331;51.654;14.376;2023-02-24T06:29:14;15.70;;;4.40;;
16442;SDS011;8331;51.654;14.376;2023-02-24T06:31:41;9.90;;;4.00;;
16442;SDS011;8331;51.654;14.376;2023-02-24T06:34:09;12.90;;;3.90;;
16442;SDS011;8331;51.654;14.376;2023-02-24T06:36:36;6.67;;;3.10;;
16442;SDS011;8331;51.654;14.376;2023-02-24T06:39:03;8.73;;;3.00;;
16442;SDS011;8331;51.654;14.376;2023-02-24T06:41:34;9.37;;;3.40;;
16442;SDS011;8331;51.654;14.376;2023-02-24T06:44:00;9.93;;;3.03;;
16442;SDS011;8331;51.654;14.376;2023-02-24T06:46:27;7.67;;;2.33;;
16442;SDS011;8331;51.654;14.376;2023-02-24T06:48:54;5.93;;;2.07;;
16442;SDS011;8331;51.654;14.376;2023-02-24T06:51:21;12.27;;;2.27;;
16442;SDS011;8331;51.654;14.376;2023-02-24T06:53:49;8.03;;;2.33;;
16442;SDS011;8331;51.654;14.376;2023-02-24T06:56:17;5.40;;;1.83;;
16442;SDS011;8331;51.654;14.376;2023-02-24T06:58:49;6.90;;;2.00;;
16442;SDS011;8331;51.654;14.376;2023-02-24T07:01:17;6.67;;;1.90;;
16442;SDS011;8331;51.654;14.376;2023-02-24T07:03:45;12.10;;;2.57;;
16442;SDS011;8331;51.654;14.376;2023-02-24T07:06:31;5.40;;;1.95;;
16442;SDS011;8331;51.654;14.376;2023-02-24T07:09:03;6.87;;;2.17;;
16442;SDS011;8331;51.654;14.376;2023-02-24T07:11:34;5.37;;;1.70;;
16442;SDS011;8331;51.654;14.376;2023-02-24T07:14:01;7.40;;;2.07;;
16442;SDS011;8331;51.654;14.376;2023-02-24T07:16:31;4.23;;;1.90;;
16442;SDS011;8331;51.654;14.376;2023-02-24T07:19:00;6.73;;;2.20;;
16442;SDS011;8331;51.654;14.376;2023-02-24T07:21:28;9.83;;;2.00;;
16442;SDS011;8331;51.654;14.376;2023-02-24T07:24:05;6.07;;;1.57;;
16442;SDS011;8331;51.654;14.376;2023-02-24T07:26:32;5.60;;;1.87;;
16442;SDS011;8331;51.654;14.376;2023-02-24T07:28:59;6.03;;;1.43;;
16442;SDS011;8331;51.654;14.376;2023-02-24T07:31:29;5.97;;;1.90;;
16442;SDS011;8331;51.654;14.376;2023-02-24T07:33:58;8.27;;;1.70;;
16442;SDS011;8331;51.654;14.376;2023-02-24T07:36:27;4.37;;;1.40;;
16442;SDS011;8331;51.654;14.376;2023-02-24T07:38:56;11.53;;;1.80;;
16442;SDS011;8331;51.654;14.376;2023-02-24T07:41:24;5.17;;;1.50;;
16442;SDS011;8331;51.654;14.376;2023-02-24T07:43:52;4.90;;;1.80;;
16442;SDS011;8331;51.654;14.376;2023-02-24T07:46:22;5.27;;;1.53;;
16442;SDS011;8331;51.654;14.376;2023-02-24T07:48:50;5.77;;;1.60;;
16442;SDS011;8331;51.654;14.376;2023-02-24T07:51:19;5.73;;;1.90;;
16442;SDS011;8331;51.654;14.376;2023-02-24T07:53:47;5.50;;;1.70;;
16442;SDS011;8331;51.654;14.376;2023-02-24T07:56:18;4.90;;;1.80;;
16442;SDS011;8331;51.654;14.376;2023-02-24T07:58:46;5.90;;;1.70;;
16442;SDS011;8331;51.654;14.376;2023-02-24T08:01:17;11.03;;;1.60;;
16442;SDS011;8331;51.654;14.376;2023-02-24T08:04:08;7.03;;;2.00;;
16442;SDS011;8331;51.654;14.376;2023-02-24T08:06:39;5.23;;;2.10;;
16442;SDS011;8331;51.654;14.376;2023-02-24T08:09:14;3.50;;;1.30;;
16442;SDS011;8331;51.654;14.376;2023-02-24T08:11:51;6.80;;;2.00;;
16442;SDS011;8331;51.654;14.376;2023-02-24T08:14:18;6.43;;;2.07;;
16442;SDS011;8331;51.654;14.376;2023-02-24T08:16:47;7.60;;;1.87;;
16442;SDS011;8331;51.654;14.376;2023-02-24T08:19:15;5.03;;;1.90;;
16442;SDS011;8331;51.654;14.376;2023-02-24T08:21:51;5.30;;;2.07;;
16442;SDS011;8331;51.654;14.376;2023-02-24T08:24:20;5.63;;;1.90;;
16442;SDS011;8331;51.654;14.376;2023-02-24T08:26:51;5.87;;;1.70;;
16442;SDS011;8331;51.654;14.376;2023-02-24T08:29:34;9.73;;;1.90;;
16442;SDS011;8331;51.654;14.376;2023-02-24T08:32:06;6.17;;;2.30;;
16442;SDS011;8331;51.654;14.376;2023-02-24T08:34:36;2.63;;;1.60;;
16442;SDS011;8331;51.654;14.376;2023-02-24T08:37:03;5.73;;;1.70;;
16442;SDS011;8331;51.654;14.376;2023-02-24T08:39:30;7.10;;;1.80;;
16442;SDS011;8331;51.654;14.376;2023-02-24T08:42:01;7.77;;;1.80;;
16442;SDS011;8331;51.654;14.376;2023-02-24T08:44:28;3.87;;;1.90;;
16442;SDS011;8331;51.654;14.376;2023-02-24T08:46:54;8.83;;;3.57;;
16442;SDS011;8331;51.654;14.376;2023-02-24T08:49:21;5.73;;;2.50;;
16442;SDS011;8331;51.654;14.376;2023-02-24T08:51:50;10.50;;;3.20;;
16442;SDS011;8331;51.654;14.376;2023-02-24T08:54:19;9.33;;;3.17;;
16442;SDS011;8331;51.654;14.376;2023-02-24T08:56:53;6.27;;;2.03;;
16442;SDS011;8331;51.654;14.376;2023-02-24T08:59:24;4.43;;;1.90;;
16442;SDS011;8331;51.654;14.376;2023-02-24T09:04:50;9.70;;;3.37;;
16442;SDS011;8331;51.654;14.376;2023-02-24T09:07:21;6.43;;;2.30;;
16442;SDS011;8331;51.654;14.376;2023-02-24T09:09:49;6.10;;;2.47;;
16442;SDS011;8331;51.654;14.376;2023-02-24T09:12:15;5.17;;;2.00;;
16442;SDS011;8331;51.654;14.376;2023-02-24T09:14:52;5.77;;;1.90;;
16442;SDS011;8331;51.654;14.376;2023-02-24T09:17:25;8.50;;;2.40;;
16442;SDS011;8331;51.654;14.376;2023-02-24T09:20:27;6.47;;;2.33;;
16442;SDS011;8331;51.654;14.376;2023-02-24T09:23:13;8.80;;;2.47;;
16442;SDS011;8331;51.654;14.376;2023-02-24T09:25:45;3.63;;;2.00;;
16442;SDS011;8331;51.654;14.376;2023-02-24T09:30:45;11.47;;;2.90;;
16442;SDS011;8331;51.654;14.376;2023-02-24T09:33:23;8.53;;;2.77;;
16442;SDS011;8331;51.654;14.376;2023-02-24T09:35:57;9.73;;;2.70;;
16442;SDS011;8331;51.654;14.376;2023-02-24T09:38:39;5.87;;;1.77;;
16442;SDS011;8331;51.654;14.376;2023-02-24T09:41:44;6.50;;;2.50;;
16442;SDS011;8331;51.654;14.376;2023-02-24T09:44:44;5.80;;;2.90;;
16442;SDS011;8331;51.654;14.376;2023-02-24T09:52:39;3.00;;;1.93;;
16442;SDS011;8331;51.654;14.376;2023-02-24T09:55:14;4.83;;;2.27;;
16442;SDS011;8331;51.654;14.376;2023-02-24T09:58:07;4.70;;;1.90;;
16442;SDS011;8331;51.654;14.376;2023-02-24T10:00:57;7.40;;;2.40;;
16442;SDS011;8331;51.654;14.376;2023-02-24T10:03:38;7.63;;;2.60;;
16442;SDS011;8331;51.654;14.376;2023-02-24T10:08:44;4.10;;;2.13;;
16442;SDS011;8331;51.654;14.376;2023-02-24T10:11:12;4.17;;;2.10;;
16442;SDS011;8331;51.654;14.376;2023-02-24T10:13:51;6.07;;;2.33;;
16442;SDS011;8331;51.654;14.376;2023-02-24T10:16:19;3.77;;;1.73;;
16442;SDS011;8331;51.654;14.376;2023-02-24T10:21:33;6.73;;;2.23;;
16442;SDS011;8331;51.654;14.376;2023-02-24T10:24:25;5.50;;;1.90;;
16442;SDS011;8331;51.654;14.376;2023-02-24T10:26:56;5.23;;;2.23;;
16442;SDS011;8331;51.654;14.376;2023-02-24T10:34:50;6.33;;;2.30;;
16442;SDS011;8331;51.654;14.376;2023-02-24T10:37:20;8.33;;;2.67;;
16442;SDS011;8331;51.654;14.376;2023-02-24T10:39:55;10.07;;;3.80;;
16442;SDS011;8331;51.654;14.376;2023-02-24T10:42:26;5.70;;;2.47;;
16442;SDS011;8331;51.654;14.376;2023-02-24T10:45:03;12.23;;;5.00;;
16442;SDS011;8331;51.654;14.376;2023-02-24T10:47:44;7.90;;;4.33;;
16442;SDS011;8331;51.654;14.376;2023-02-24T10:53:10;7.07;;;2.67;;
16442;SDS011;8331;51.654;14.376;2023-02-24T10:55:51;5.80;;;2.57;;
16442;SDS011;8331;51.654;14.376;2023-02-24T10:58:29;8.00;;;3.23;;
16442;SDS011;8331;51.654;14.376;2023-02-24T11:01:10;4.20;;;2.70;;
16442;SDS011;8331;51.654;14.376;2023-02-24T11:03:53;5.93;;;2.90;;
16442;SDS011;8331;51.654;14.376;2023-02-24T11:11:56;8.83;;;3.07;;
16442;SDS011;8331;51.654;14.376;2023-02-24T11:14:53;9.87;;;3.90;;
16442;SDS011;8331;51.654;14.376;2023-02-24T11:17:47;8.57;;;3.80;;
16442;SDS011;8331;51.654;14.376;2023-02-24T11:22:47;8.70;;;3.20;;
16442;SDS011;8331;51.654;14.376;2023-02-24T11:25:32;7.37;;;3.50;;
16442;SDS011;8331;51.654;14.376;2023-02-24T11:28:00;8.40;;;4.27;;
16442;SDS011;8331;51.654;14.376;2023-02-24T11:30:39;11.20;;;3.57;;
16442;SDS011;8331;51.654;14.376;2023-02-24T11:33:14;6.67;;;3.20;;
16442;SDS011;8331;51.654;14.376;2023-02-24T11:35:47;6.60;;;3.00;;
16442;SDS011;8331;51.654;14.376;2023-02-24T11:40:44;9.17;;;3.33;;
16442;SDS011;8331;51.654;14.376;2023-02-24T11:43:18;8.03;;;3.50;;
16442;SDS011;8331;51.654;14.376;2023-02-24T11:48:20;6.10;;;3.03;;
16442;SDS011;8331;51.654;14.376;2023-02-24T11:56:37;9.27;;;3.50;;
16442;SDS011;8331;51.654;14.376;2023-02-24T11:58:47;8.53;;;3.70;;
16442;SDS011;8331;51.654;14.376;2023-02-24T12:01:19;4.70;;;3.63;;
16442;SDS011;8331;51.654;14.376;2023-02-24T12:03:51;13.97;;;3.63;;
16442;SDS011;8331;51.654;14.376;2023-02-24T12:06:33;7.90;;;3.97;;
16442;SDS011;8331;51.654;14.376;2023-02-24T12:09:10;9.57;;;4.70;;
16442;SDS011;8331;51.654;14.376;2023-02-24T12:11:51;10.63;;;4.17;;
16442;SDS011;8331;51.654;14.376;2023-02-24T12:14:21;13.50;;;4.03;;
16442;SDS011;8331;51.654;14.376;2023-02-24T12:16:53;16.43;;;7.73;;
16442;SDS011;8331;51.654;14.376;2023-02-24T12:19:26;10.33;;;4.60;;
16442;SDS011;8331;51.654;14.376;2023-02-24T12:21:55;9.40;;;4.30;;
16442;SDS011;8331;51.654;14.376;2023-02-24T12:24:24;7.73;;;4.43;;
16442;SDS011;8331;51.654;14.376;2023-02-24T12:37:21;7.70;;;3.97;;
16442;SDS011;8331;51.654;14.376;2023-02-24T12:55:40;9.97;;;4.67;;
16442;SDS011;8331;51.654;14.376;2023-02-24T12:58:13;10.73;;;4.90;;
16442;SDS011;8331;51.654;14.376;2023-02-24T13:03:48;7.87;;;4.23;;
16442;SDS011;8331;51.654;14.376;2023-02-24T13:09:45;12.60;;;6.23;;
16442;SDS011;8331;51.654;14.376;2023-02-24T13:16:44;8.27;;;4.03;;
16442;SDS011;8331;51.654;14.376;2023-02-24T13:19:18;9.67;;;4.30;;
16442;SDS011;8331;51.654;14.376;2023-02-24T13:21:54;9.63;;;4.67;;
16442;SDS011;8331;51.654;14.376;2023-02-24T13:24:22;5.87;;;4.13;;
16442;SDS011;8331;51.654;14.376;2023-02-24T13:26:49;7.07;;;4.20;;
16442;SDS011;8331;51.654;14.376;2023-02-24T13:29:16;6.97;;;4.30;;
16442;SDS011;8331;51.654;14.376;2023-02-24T13:31:44;6.93;;;3.70;;
16442;SDS011;8331;51.654;14.376;2023-02-24T13:34:13;7.30;;;4.03;;
16442;SDS011;8331;51.654;14.376;2023-02-24T13:36:46;8.47;;;3.70;;
16442;SDS011;8331;51.654;14.376;2023-02-24T13:42:05;5.20;;;3.60;;
16442;SDS011;8331;51.654;14.376;2023-02-24T13:44:51;5.00;;;4.00;;
16442;SDS011;8331;51.654;14.376;2023-02-24T13:47:26;4.87;;;4.07;;
16442;SDS011;8331;51.654;14.376;2023-02-24T14:00:50;6.00;;;3.60;;
16442;SDS011;8331;51.654;14.376;2023-02-24T14:03:19;6.13;;;3.70;;
16442;SDS011;8331;51.654;14.376;2023-02-24T14:05:46;9.97;;;4.20;;
16442;SDS011;8331;51.654;14.376;2023-02-24T14:08:17;4.33;;;3.93;;
16442;SDS011;8331;51.654;14.376;2023-02-24T14:10:45;6.53;;;3.90;;
16442;SDS011;8331;51.654;14.376;2023-02-24T14:13:18;6.67;;;4.17;;
16442;SDS011;8331;51.654;14.376;2023-02-24T14:15:46;5.70;;;3.97;;
16442;SDS011;8331;51.654;14.376;2023-02-24T14:18:17;5.53;;;4.00;;
16442;SDS011;8331;51.654;14.376;2023-02-24T14:20:43;5.53;;;3.87;;
16442;SDS011;8331;51.654;14.376;2023-02-24T14:23:29;7.03;;;4.27;;
16442;SDS011;8331;51.654;14.376;2023-02-24T14:25:58;6.67;;;4.30;;
16442;SDS011;8331;51.654;14.376;2023-02-24T14:28:30;8.13;;;4.60;;
16442;SDS011;8331;51.654;14.376;2023-02-24T14:30:58;7.10;;;3.70;;
16442;SDS011;8331;51.654;14.376;2023-02-24T14:33:32;6.10;;;3.77;;
16442;SDS011;8331;51.654;14.376;2023-02-24T14:35:59;10.07;;;4.80;;
16442;SDS011;8331;51.654;14.376;2023-02-24T14:38:36;8.73;;;4.30;;
16442;SDS011;8331;51.654;14.376;2023-02-24T14:41:04;9.70;;;4.50;;
16442;SDS011;8331;51.654;14.376;2023-02-24T14:43:30;8.13;;;4.50;;
16442;SDS011;8331;51.654;14.376;2023-02-24T14:45:57;6.53;;;3.80;;
16442;SDS011;8331;51.654;14.376;2023-02-24T14:48:29;8.40;;;4.37;;
16442;SDS011;8331;51.654;14.376;2023-02-24T14:50:59;9.87;;;3.93;;
16442;SDS011;8331;51.654;14.376;2023-02-24T14:53:27;7.57;;;4.90;;
16442;SDS011;8331;51.654;14.376;2023-02-24T14:55:55;4.73;;;4.07;;
16442;SDS011;8331;51.654;14.376;2023-02-24T14:58:35;7.63;;;3.70;;
16442;SDS011;8331;51.654;14.376;2023-02-24T15:01:05;5.50;;;3.17;;
16442;SDS011;8331;51.654;14.376;2023-02-24T15:03:45;3.00;;;2.60;;
16442;SDS011;8331;51.654;14.376;2023-02-24T15:06:14;4.67;;;2.73;;
16442;SDS011;8331;51.654;14.376;2023-02-24T15:08:43;4.20;;;2.53;;
16442;SDS011;8331;51.654;14.376;2023-02-24T15:13:41;5.47;;;2.70;;
16442;SDS011;8331;51.654;14.376;2023-02-24T15:16:12;4.10;;;3.20;;
16442;SDS011;8331;51.654;14.376;2023-02-24T15:18:39;4.93;;;3.07;;
16442;SDS011;8331;51.654;14.376;2023-02-24T15:21:06;4.73;;;2.73;;
16442;SDS011;8331;51.654;14.376;2023-02-24T15:23:42;3.87;;;2.20;;
16442;SDS011;8331;51.654;14.376;2023-02-24T15:26:23;3.50;;;2.80;;
16442;SDS011;8331;51.654;14.376;2023-02-24T15:28:55;6.13;;;3.03;;
16442;SDS011;8331;51.654;14.376;2023-02-24T15:31:22;4.70;;;2.80;;
16442;SDS011;8331;51.654;14.376;2023-02-24T15:34:12;2.60;;;2.40;;
16442;SDS011;8331;51.654;14.376;2023-02-24T15:36:38;3.80;;;2.27;;
16442;SDS011;8331;51.654;14.376;2023-02-24T15:39:06;4.90;;;2.93;;
16442;SDS011;8331;51.654;14.376;2023-02-24T15:41:37;4.43;;;3.00;;
16442;SDS011;8331;51.654;14.376;2023-02-24T15:44:03;3.60;;;2.57;;
16442;SDS011;8331;51.654;14.376;2023-02-24T15:46:31;6.40;;;2.80;;
16442;SDS011;8331;51.654;14.376;2023-02-24T15:48:58;3.27;;;2.70;;
16442;SDS011;8331;51.654;14.376;2023-02-24T15:51:41;3.57;;;2.70;;
16442;SDS011;8331;51.654;14.376;2023-02-24T15:54:33;7.70;;;3.27;;
16442;SDS011;8331;51.654;14.376;2023-02-24T15:56:57;4.43;;;3.33;;
16442;SDS011;8331;51.654;14.376;2023-02-24T15:59:24;6.40;;;3.33;;
16442;SDS011;8331;51.654;14.376;2023-02-24T16:01:51;5.37;;;3.30;;
16442;SDS011;8331;51.654;14.376;2023-02-24T16:04:18;5.87;;;3.40;;
16442;SDS011;8331;51.654;14.376;2023-02-24T16:06:45;5.27;;;3.50;;
16442;SDS011;8331;51.654;14.376;2023-02-24T16:11:49;6.73;;;3.80;;
16442;SDS011;8331;51.654;14.376;2023-02-24T16:14:16;4.43;;;3.60;;
16442;SDS011;8331;51.654;14.376;2023-02-24T16:16:43;5.90;;;3.70;;
16442;SDS011;8331;51.654;14.376;2023-02-24T16:19:12;4.23;;;3.20;;
16442;SDS011;8331;51.654;14.376;2023-02-24T16:21:39;7.53;;;3.47;;
16442;SDS011;8331;51.654;14.376;2023-02-24T16:24:06;6.30;;;4.00;;
16442;SDS011;8331;51.654;14.376;2023-02-24T16:26:34;5.20;;;3.73;;
16442;SDS011;8331;51.654;14.376;2023-02-24T16:29:01;4.20;;;3.40;;
16442;SDS011;8331;51.654;14.376;2023-02-24T16:31:28;5.90;;;3.50;;
16442;SDS011;8331;51.654;14.376;2023-02-24T16:33:55;5.27;;;3.20;;
16442;SDS011;8331;51.654;14.376;2023-02-24T16:36:22;4.80;;;3.67;;
16442;SDS011;8331;51.654;14.376;2023-02-24T16:38:49;4.60;;;4.03;;
16442;SDS011;8331;51.654;14.376;2023-02-24T16:41:17;4.17;;;3.77;;
16442;SDS011;8331;51.654;14.376;2023-02-24T16:43:43;4.47;;;3.67;;
16442;SDS011;8331;51.654;14.376;2023-02-24T16:46:15;4.93;;;4.43;;
16442;SDS011;8331;51.654;14.376;2023-02-24T16:48:43;4.53;;;3.30;;
16442;SDS011;8331;51.654;14.376;2023-02-24T16:51:10;4.50;;;3.93;;
16442;SDS011;8331;51.654;14.376;2023-02-24T16:53:37;5.67;;;3.80;;
16442;SDS011;8331;51.654;14.376;2023-02-24T16:56:04;4.20;;;3.80;;
16442;SDS011;8331;51.654;14.376;2023-02-24T16:58:31;4.87;;;4.43;;
16442;SDS011;8331;51.654;14.376;2023-02-24T17:00:58;5.33;;;4.20;;
16442;SDS011;8331;51.654;14.376;2023-02-24T17:03:29;5.47;;;4.27;;
16442;SDS011;8331;51.654;14.376;2023-02-24T17:05:56;4.07;;;3.63;;
16442;SDS011;8331;51.654;14.376;2023-02-24T17:08:23;4.07;;;3.57;;
16442;SDS011;8331;51.654;14.376;2023-02-24T17:10:49;4.13;;;3.60;;
16442;SDS011;8331;51.654;14.376;2023-02-24T17:13:18;4.80;;;3.60;;
16442;SDS011;8331;51.654;14.376;2023-02-24T17:15:44;4.83;;;4.27;;
16442;SDS011;8331;51.654;14.376;2023-02-24T17:18:11;4.03;;;3.63;;
16442;SDS011;8331;51.654;14.376;2023-02-24T17:20:38;5.83;;;3.77;;
16442;SDS011;8331;51.654;14.376;2023-02-24T17:23:05;5.37;;;4.10;;
16442;SDS011;8331;51.654;14.376;2023-02-24T17:25:32;4.57;;;4.17;;
16442;SDS011;8331;51.654;14.376;2023-02-24T17:27:59;3.80;;;3.50;;